createdAt,value
2023-09-06T00:05:11.101Z,26.02
2023-09-06T00:08:15.762Z,26.01
2023-09-06T00:11:18.257Z,26.01
2023-09-06T00:14:21.713Z,26.00
2023-09-06T00:17:24.287Z,26.00
2023-09-06T00:20:26.711Z,26.00
2023-09-06T00:23:31.110Z,26.00
2023-09-06T00:26:33.652Z,26.00
2023-09-06T00:29:36.176Z,25.98
2023-09-06T00:32:38.646Z,25.98
2023-09-06T00:35:41.109Z,25.98
2023-09-06T00:38:44.865Z,25.98
2023-09-06T00:41:47.254Z,25.97
2023-09-06T00:44:49.684Z,25.96
2023-09-06T00:47:52.242Z,25.95
2023-09-06T00:50:55.583Z,25.94
2023-09-06T00:54:01.621Z,25.94
2023-09-06T00:57:04.419Z,25.94
2023-09-06T01:00:09.435Z,25.92
2023-09-06T01:03:12.152Z,25.93
2023-09-06T01:06:17.481Z,25.91
2023-09-06T01:09:21.247Z,25.90
2023-09-06T01:12:24.191Z,25.90
2023-09-06T01:15:26.771Z,25.88
2023-09-06T01:18:29.852Z,25.88
2023-09-06T01:21:33.838Z,25.88
2023-09-06T01:24:37.650Z,25.87
2023-09-06T01:27:40.177Z,25.87
2023-09-06T01:30:42.855Z,25.87
2023-09-06T01:33:45.518Z,25.86
2023-09-06T01:36:47.970Z,25.85
2023-09-06T01:39:51.801Z,25.86
2023-09-06T01:42:55.122Z,25.85
2023-09-06T01:45:57.616Z,25.85
2023-09-06T01:49:00.980Z,25.85
2023-09-06T01:52:06.374Z,25.84
2023-09-06T01:55:10.732Z,25.83
2023-09-06T01:58:13.441Z,25.83
2023-09-06T02:01:16.218Z,25.83
2023-09-06T02:04:18.693Z,25.82
2023-09-06T02:07:21.113Z,25.81
2023-09-06T02:10:25.234Z,25.80
2023-09-06T02:13:27.638Z,25.80
2023-09-06T02:16:31.204Z,25.78
2023-09-06T02:19:33.709Z,25.79
2023-09-06T02:22:37.173Z,25.78
2023-09-06T02:25:40.924Z,25.78
2023-09-06T02:28:43.305Z,25.78
2023-09-06T02:31:46.659Z,25.77
2023-09-06T02:34:49.094Z,25.76
2023-09-06T02:37:51.550Z,25.76
2023-09-06T02:40:55.316Z,25.75
2023-09-06T02:43:57.729Z,25.75
2023-09-06T02:47:02.135Z,25.75
2023-09-06T02:50:07.268Z,25.74
2023-09-06T02:53:20.911Z,25.73
2023-09-06T02:56:25.225Z,25.73
2023-09-06T02:59:29.322Z,25.78
2023-09-06T03:02:31.813Z,25.78
2023-09-06T03:05:35.945Z,25.73
2023-09-06T03:08:38.375Z,25.72
2023-09-06T03:11:42.140Z,25.71
2023-09-06T03:14:45.670Z,25.70
2023-09-06T03:17:48.304Z,25.70
2023-09-06T03:20:50.885Z,25.69
2023-09-06T03:23:53.911Z,25.68
2023-09-06T03:26:59.315Z,25.68
2023-09-06T03:30:01.781Z,25.68
2023-09-06T03:33:06.304Z,25.65
2023-09-06T03:36:10.605Z,25.65
2023-09-06T03:39:15.504Z,25.63
2023-09-06T03:42:19.797Z,25.65
2023-09-06T03:45:25.249Z,25.60
2023-09-06T03:48:29.667Z,25.38
2023-09-06T03:51:32.620Z,25.27
2023-09-06T03:54:35.406Z,25.20
2023-09-06T03:57:39.835Z,25.13
2023-09-06T04:00:44.715Z,25.00
2023-09-06T04:03:51.731Z,24.89
2023-09-06T04:06:54.390Z,24.74
2023-09-06T04:09:57.735Z,24.66
2023-09-06T04:13:01.583Z,24.59
2023-09-06T04:16:06.942Z,24.52
2023-09-06T04:19:09.775Z,24.47
2023-09-06T04:22:14.155Z,24.47
2023-09-06T04:25:20.139Z,24.44
2023-09-06T04:28:23.908Z,24.40
2023-09-06T04:31:26.413Z,24.33
2023-09-06T04:34:28.909Z,24.26
2023-09-06T04:37:31.370Z,24.23
2023-09-06T04:40:33.750Z,24.16
2023-09-06T04:43:37.518Z,24.11
2023-09-06T04:46:39.942Z,24.03
2023-09-06T04:49:43.712Z,23.96
2023-09-06T04:52:47.059Z,23.90
2023-09-06T04:55:50.574Z,23.77
2023-09-06T04:58:54.722Z,23.71
2023-09-06T05:01:57.163Z,23.69
2023-09-06T05:05:00.455Z,23.67
2023-09-06T05:08:04.432Z,23.65
2023-09-06T05:11:07.823Z,23.58
2023-09-06T05:14:11.830Z,23.55
2023-09-06T05:17:14.272Z,23.67
2023-09-06T05:20:27.337Z,23.81
2023-09-06T05:23:30.017Z,23.96
2023-09-06T05:26:34.683Z,24.07
2023-09-06T05:29:38.393Z,24.17
2023-09-06T05:32:40.829Z,24.26
2023-09-06T05:35:43.843Z,24.33
2023-09-06T05:38:46.261Z,24.41
2023-09-06T05:41:48.666Z,24.47
2023-09-06T05:44:52.383Z,24.51
2023-09-06T05:47:54.944Z,24.55
2023-09-06T05:50:57.495Z,24.60
2023-09-06T05:54:01.725Z,24.65
2023-09-06T05:57:05.694Z,24.69
2023-09-06T06:00:16.699Z,24.72
2023-09-06T06:03:20.256Z,24.76
2023-09-06T06:06:23.802Z,24.80
2023-09-06T06:09:28.758Z,24.84
2023-09-06T06:12:31.191Z,24.86
2023-09-06T06:15:35.959Z,24.90
2023-09-06T06:18:38.384Z,24.94
2023-09-06T06:21:40.884Z,24.95
2023-09-06T06:24:45.073Z,24.98
2023-09-06T06:27:48.242Z,25.00
2023-09-06T06:30:52.346Z,25.02
2023-09-06T06:33:54.944Z,25.05
2023-09-06T06:36:57.392Z,25.08
2023-09-06T06:40:00.597Z,25.09
2023-09-06T06:43:03.050Z,25.12
2023-09-06T06:46:06.913Z,25.13
2023-09-06T06:49:10.069Z,25.15
2023-09-06T06:52:12.551Z,25.18
2023-09-06T06:55:16.630Z,25.20
2023-09-06T06:58:19.155Z,25.21
2023-09-06T07:01:25.381Z,25.24
2023-09-06T07:04:27.887Z,25.26
2023-09-06T07:07:30.324Z,25.27
2023-09-06T07:10:32.755Z,25.30
2023-09-06T07:13:35.760Z,25.31
2023-09-06T07:16:40.837Z,25.34
2023-09-06T07:19:43.818Z,25.34
2023-09-06T07:22:46.215Z,25.38
2023-09-06T07:25:49.454Z,25.40
2023-09-06T07:28:52.154Z,25.40
2023-09-06T07:31:55.951Z,25.43
2023-09-06T07:34:58.373Z,25.44
2023-09-06T07:38:00.790Z,25.47
2023-09-06T07:41:04.170Z,25.48
2023-09-06T07:44:06.604Z,25.51
2023-09-06T07:47:10.525Z,25.53
2023-09-06T07:50:13.099Z,25.54
2023-09-06T07:53:15.544Z,25.56
2023-09-06T07:56:18.001Z,25.58
2023-09-06T07:59:22.717Z,25.59
2023-09-06T08:02:26.496Z,25.60
2023-09-06T08:05:28.886Z,25.62
2023-09-06T08:08:31.596Z,25.64
2023-09-06T08:11:34.222Z,25.65
2023-09-06T08:14:36.655Z,25.68
2023-09-06T08:17:40.639Z,25.68
2023-09-06T08:20:43.077Z,25.70
2023-09-06T08:23:45.530Z,25.72
2023-09-06T08:26:49.260Z,25.73
2023-09-06T08:29:51.817Z,25.74
2023-09-06T08:32:57.076Z,25.77
2023-09-06T08:36:00.493Z,25.78
2023-09-06T08:39:04.195Z,25.79
2023-09-06T08:42:07.533Z,25.81
2023-09-06T08:45:10.341Z,25.81
2023-09-06T08:48:14.265Z,25.82
2023-09-06T08:51:16.713Z,25.84
2023-09-06T08:54:19.176Z,25.84
2023-09-06T08:57:21.762Z,25.86
2023-09-06T09:00:25.052Z,25.87
2023-09-06T09:03:29.519Z,25.88
2023-09-06T09:06:33.052Z,25.87
2023-09-06T09:09:35.510Z,25.89
2023-09-06T09:12:38.931Z,25.90
2023-09-06T09:15:41.366Z,25.91
2023-09-06T09:18:45.716Z,25.92
2023-09-06T09:21:48.228Z,25.93
2023-09-06T09:24:50.792Z,25.93
2023-09-06T09:27:57.316Z,25.94
2023-09-06T09:31:00.054Z,25.96
2023-09-06T09:34:03.832Z,25.96
2023-09-06T09:37:06.892Z,25.96
2023-09-06T09:40:18.911Z,25.97
2023-09-06T09:43:21.642Z,25.98
2023-09-06T09:46:28.184Z,25.99
2023-09-06T09:49:32.099Z,26.00
2023-09-06T09:52:34.538Z,26.00
2023-09-06T09:55:38.071Z,26.00
2023-09-06T09:58:41.233Z,26.01
2023-09-06T10:01:43.732Z,26.02
2023-09-06T10:04:47.907Z,26.02
2023-09-06T10:07:50.419Z,26.03
2023-09-06T10:10:53.137Z,26.03
2023-09-06T10:13:57.535Z,26.04
2023-09-06T10:17:00.169Z,26.05
2023-09-06T10:20:04.244Z,26.04
2023-09-06T10:23:07.918Z,26.06
2023-09-06T10:26:11.080Z,26.06
2023-09-06T10:29:13.564Z,26.06
2023-09-06T10:32:16.004Z,26.08
2023-09-06T10:35:23.173Z,26.07
2023-09-06T10:38:25.598Z,26.08
2023-09-06T10:41:28.205Z,26.07
2023-09-06T10:44:31.179Z,26.08
2023-09-06T10:47:34.974Z,26.09
2023-09-06T10:50:38.899Z,26.11
2023-09-06T10:53:41.557Z,26.10
2023-09-06T10:56:51.554Z,26.10
2023-09-06T10:59:57.624Z,26.11
2023-09-06T11:03:15.997Z,26.12
2023-09-06T11:06:20.165Z,26.12
2023-09-06T11:09:23.452Z,26.13
2023-09-06T11:12:25.875Z,26.12
2023-09-06T11:15:28.416Z,26.12
2023-09-06T11:18:32.363Z,26.13
2023-09-06T11:21:37.393Z,26.13
2023-09-06T11:24:39.941Z,26.14
2023-09-06T11:27:42.350Z,26.14
2023-09-06T11:30:46.257Z,26.15
2023-09-06T11:33:54.395Z,26.15
2023-09-06T11:36:59.000Z,26.15
2023-09-06T11:40:02.367Z,26.16
2023-09-06T11:43:05.763Z,26.16
2023-09-06T11:46:09.877Z,26.16
2023-09-06T11:49:13.069Z,26.16
2023-09-06T11:52:18.214Z,26.17
2023-09-06T11:55:20.682Z,26.16
2023-09-06T11:58:25.147Z,26.17
2023-09-06T12:01:27.995Z,26.17
2023-09-06T12:04:32.648Z,26.17
2023-09-06T12:07:36.464Z,26.16
2023-09-06T12:10:40.046Z,26.17
2023-09-06T12:13:42.610Z,26.18
2023-09-06T12:16:45.081Z,26.18
2023-09-06T12:19:47.761Z,26.18
2023-09-06T12:22:51.694Z,26.18
2023-09-06T12:25:54.082Z,26.18
2023-09-06T12:28:56.663Z,26.20
2023-09-06T12:32:00.548Z,26.21
2023-09-06T12:35:05.196Z,26.20
2023-09-06T12:38:09.498Z,26.23
2023-09-06T12:41:11.959Z,26.23
2023-09-06T12:44:14.620Z,26.24
2023-09-06T12:47:17.580Z,26.24
2023-09-06T12:50:20.785Z,26.26
2023-09-06T12:53:24.949Z,26.26
2023-09-06T12:56:27.451Z,26.27
2023-09-06T12:59:29.852Z,26.27
2023-09-06T13:02:32.347Z,26.28
2023-09-06T13:05:34.965Z,26.29
2023-09-06T13:08:38.857Z,26.31
2023-09-06T13:11:41.260Z,26.32
2023-09-06T13:14:43.664Z,26.33
2023-09-06T13:17:46.166Z,26.33
2023-09-06T13:20:50.504Z,26.34
2023-09-06T13:23:54.221Z,26.35
2023-09-06T13:26:56.609Z,26.37
2023-09-06T13:29:59.014Z,26.38
2023-09-06T13:33:01.445Z,26.39
2023-09-06T13:36:05.403Z,26.40
2023-09-06T13:39:11.054Z,26.41
2023-09-06T13:42:13.550Z,26.42
2023-09-06T13:45:16.159Z,26.43
2023-09-06T13:48:18.708Z,26.45
2023-09-06T13:51:21.332Z,26.48
2023-09-06T13:54:25.100Z,26.49
2023-09-06T13:57:29.423Z,26.49
2023-09-06T14:00:31.790Z,26.51
2023-09-06T14:03:34.348Z,26.53
2023-09-06T14:06:38.688Z,26.54
2023-09-06T14:09:42.583Z,26.55
2023-09-06T14:12:45.071Z,26.56
2023-09-06T14:15:47.477Z,26.57
2023-09-06T14:18:49.971Z,26.59
2023-09-06T14:21:53.225Z,26.60
2023-09-06T14:24:57.224Z,26.62
2023-09-06T14:27:59.655Z,26.63
2023-09-06T14:31:02.125Z,26.64
2023-09-06T14:34:04.598Z,26.65
2023-09-06T14:37:07.093Z,26.66
2023-09-06T14:40:11.737Z,26.67
2023-09-06T14:43:14.923Z,26.67
2023-09-06T14:46:17.886Z,26.68
2023-09-06T14:49:21.284Z,26.69
2023-09-06T14:52:23.798Z,26.68
2023-09-06T14:55:29.009Z,26.72
2023-09-06T14:58:31.681Z,26.74
2023-09-06T15:01:34.719Z,26.77
2023-09-06T15:04:38.435Z,26.77
2023-09-06T15:07:40.900Z,26.78
2023-09-06T15:10:45.647Z,26.79
2023-09-06T15:13:48.065Z,26.80
2023-09-06T15:16:50.478Z,26.81
2023-09-06T15:19:52.959Z,26.82
2023-09-06T15:22:55.383Z,26.83
2023-09-06T15:25:59.348Z,26.83
2023-09-06T15:29:01.805Z,26.80
2023-09-06T15:32:06.949Z,26.80
2023-09-06T15:35:09.709Z,26.82
2023-09-06T15:38:12.888Z,26.83
2023-09-06T15:41:18.605Z,26.84
2023-09-06T15:44:21.557Z,26.84
2023-09-06T15:47:24.149Z,26.86
2023-09-06T15:50:26.628Z,26.87
2023-09-06T15:53:29.121Z,26.87
2023-09-06T15:56:32.952Z,26.88
2023-09-06T15:59:35.402Z,26.89
2023-09-06T16:02:38.738Z,26.90
2023-09-06T16:05:41.513Z,26.89
2023-09-06T16:08:44.121Z,26.90
2023-09-06T16:11:55.274Z,26.91
2023-09-06T16:14:57.683Z,26.92
2023-09-06T16:18:00.146Z,26.92
2023-09-06T16:21:02.813Z,26.93
2023-09-06T16:24:06.412Z,26.94
2023-09-06T16:27:10.344Z,26.94
2023-09-06T16:30:14.324Z,26.92
2023-09-06T16:33:18.172Z,26.99
2023-09-06T16:36:20.665Z,26.99
2023-09-06T16:39:23.274Z,26.99
2023-09-06T16:42:27.041Z,26.97
2023-09-06T16:45:29.983Z,26.96
2023-09-06T16:48:32.754Z,26.91
2023-09-06T16:51:35.737Z,26.88
2023-09-06T16:54:38.270Z,26.87
2023-09-06T16:57:41.988Z,26.85
2023-09-06T17:00:44.941Z,26.82
2023-09-06T17:03:47.448Z,26.83
2023-09-06T17:06:49.868Z,26.81
2023-09-06T17:09:52.303Z,26.79
2023-09-06T17:12:56.054Z,26.78
2023-09-06T17:15:58.472Z,26.77
2023-09-06T17:19:00.961Z,26.77
2023-09-06T17:22:03.338Z,26.76
2023-09-06T17:25:10.137Z,26.73
2023-09-06T17:28:14.152Z,26.73
2023-09-06T17:31:18.141Z,26.72
2023-09-06T17:34:20.626Z,26.71
2023-09-06T17:37:23.017Z,26.70
2023-09-06T17:40:25.643Z,26.69
2023-09-06T17:43:29.487Z,26.69
2023-09-06T17:46:31.864Z,26.69
2023-09-06T17:49:35.112Z,26.67
2023-09-06T17:52:38.473Z,26.67
2023-09-06T17:55:41.294Z,26.66
2023-09-06T17:58:45.506Z,26.68
2023-09-06T18:01:48.095Z,26.69
2023-09-06T18:04:50.731Z,26.67
2023-09-06T18:07:53.571Z,26.67
2023-09-06T18:10:56.421Z,26.66
2023-09-06T18:14:00.234Z,26.66
2023-09-06T18:17:02.720Z,26.62
2023-09-06T18:20:08.115Z,26.60
2023-09-06T18:23:10.961Z,26.60
2023-09-06T18:26:13.796Z,26.60
2023-09-06T18:29:18.232Z,26.59
2023-09-06T18:32:20.716Z,26.58
2023-09-06T18:35:23.306Z,26.58
2023-09-06T18:38:25.903Z,26.58
2023-09-06T18:41:28.339Z,26.58
2023-09-06T18:44:32.674Z,26.58
2023-09-06T18:47:35.294Z,26.57
2023-09-06T18:50:40.334Z,26.56
2023-09-06T18:53:42.778Z,26.56
2023-09-06T18:56:45.148Z,26.54
2023-09-06T18:59:49.000Z,26.53
2023-09-06T19:02:51.889Z,26.52
2023-09-06T19:05:54.374Z,26.50
2023-09-06T19:08:57.685Z,26.50
2023-09-06T19:12:00.136Z,26.50
2023-09-06T19:15:05.158Z,26.49
2023-09-06T19:18:08.140Z,26.46
2023-09-06T19:21:10.653Z,26.46
2023-09-06T19:24:13.094Z,26.45
2023-09-06T19:27:15.612Z,26.44
2023-09-06T19:30:19.549Z,26.43
2023-09-06T19:35:14.761Z,26.35
2023-09-06T19:38:21.378Z,26.34
2023-09-06T19:41:24.318Z,26.32
2023-09-06T19:44:26.900Z,26.30
2023-09-06T19:47:29.633Z,26.28
2023-09-06T19:50:33.540Z,26.28
2023-09-06T19:53:36.200Z,26.25
2023-09-06T19:56:38.737Z,26.23
2023-09-06T19:59:41.328Z,26.21
2023-09-06T20:02:44.130Z,26.22
2023-09-06T20:05:49.861Z,26.20
2023-09-06T20:08:53.431Z,26.19
2023-09-06T20:11:56.038Z,26.18
2023-09-06T20:14:58.647Z,26.17
2023-09-06T20:18:01.956Z,26.19
2023-09-06T20:21:08.987Z,26.20
2023-09-06T20:24:11.547Z,26.18
2023-09-06T20:27:14.591Z,26.18
2023-09-06T20:30:17.229Z,26.16
2023-09-06T20:33:21.653Z,26.15
2023-09-06T20:36:26.984Z,26.12
2023-09-06T20:39:29.580Z,26.08
2023-09-06T20:42:32.162Z,26.06
2023-09-06T20:45:35.596Z,26.04
2023-09-06T20:48:41.409Z,26.04
2023-09-06T20:51:46.037Z,26.02
2023-09-06T20:54:48.766Z,25.97
2023-09-06T20:57:51.490Z,25.94
2023-09-06T21:00:56.590Z,25.97
2023-09-06T21:03:59.361Z,26.01
2023-09-06T21:07:04.424Z,26.03
2023-09-06T21:10:07.803Z,26.05
2023-09-06T21:13:10.362Z,26.12
2023-09-06T21:16:13.164Z,26.14
2023-09-06T21:19:15.717Z,26.15
2023-09-06T21:22:19.667Z,26.14
2023-09-06T21:25:23.187Z,26.12
2023-09-06T21:28:25.854Z,26.14
2023-09-06T21:31:28.588Z,26.14
2023-09-06T21:34:31.250Z,26.15
2023-09-06T21:37:35.276Z,26.15
2023-09-06T21:40:41.745Z,26.16
2023-09-06T21:43:44.257Z,26.16
2023-09-06T21:46:46.842Z,26.15
2023-09-06T21:49:49.553Z,26.15
2023-09-06T21:52:54.395Z,26.16
2023-09-06T21:55:56.916Z,26.15
2023-09-06T21:59:00.545Z,26.17
2023-09-06T22:02:03.204Z,26.17
2023-09-06T22:05:06.636Z,26.17
2023-09-06T22:08:10.604Z,26.17
2023-09-06T22:11:13.209Z,26.18
2023-09-06T22:14:18.082Z,26.18
2023-09-06T22:17:20.635Z,26.19
2023-09-06T22:20:24.383Z,26.17
2023-09-06T22:23:28.392Z,26.18
2023-09-06T22:26:30.908Z,26.18
2023-09-06T22:29:33.440Z,26.18
2023-09-06T22:32:35.995Z,26.18
2023-09-06T22:35:38.606Z,26.18
2023-09-06T22:38:42.495Z,26.19
2023-09-06T22:41:45.052Z,26.19
2023-09-06T22:44:47.625Z,26.19
2023-09-06T22:47:50.178Z,26.19
2023-09-06T22:50:52.760Z,26.23
2023-09-06T22:53:56.645Z,26.25
2023-09-06T22:56:59.183Z,26.25
2023-09-06T23:00:02.181Z,26.26
2023-09-06T23:03:05.293Z,26.25
2023-09-06T23:06:11.127Z,26.22
2023-09-06T23:09:19.915Z,26.20
2023-09-06T23:12:23.354Z,26.20
2023-09-06T23:15:27.992Z,26.20
2023-09-06T23:18:32.568Z,26.20
2023-09-06T23:21:39.274Z,26.20
2023-09-06T23:24:45.951Z,26.20
2023-09-06T23:27:48.755Z,26.19
2023-09-06T23:30:55.402Z,26.22
2023-09-06T23:34:00.397Z,26.19
2023-09-06T23:37:06.234Z,26.18
2023-09-06T23:40:21.297Z,26.20
2023-09-06T23:43:24.562Z,26.20
2023-09-06T23:46:27.635Z,26.21
2023-09-06T23:49:32.870Z,26.20
2023-09-06T23:52:35.540Z,26.21
2023-09-06T23:55:39.649Z,26.20
2023-09-06T23:58:42.252Z,26.20
